Time;durP1;ratioP1;P1;durP2;ratioP2;P2;SDS_P1;SDS_P2;PMS_P1;PMS_P2;Temp;Humidity;BMP_temperature;BMP_pressure;BME280_temperature;BME280_humidity;BME280_pressure;Samples;Min_cycle;Max_cycle;Signal;HPM_P1;HPM_P2
2022/11/04 00:01:13;;;;;;;14.32;10.27;;;11.70;99.90;;;;;;5133966;28;20478;-70
2022/11/04 00:03:39;;;;;;;15.88;11.48;;;11.60;99.90;;;;;;5133948;28;20054;-70
2022/11/04 00:06:05;;;;;;;14.00;10.85;;;11.50;99.90;;;;;;5133580;28;20542;-70
2022/11/04 00:08:31;;;;;;;16.90;10.60;;;11.50;99.90;;;;;;5134034;28;20069;-70
2022/11/04 00:13:42;;;;;;;12.45;10.23;;;11.60;99.90;;;;;;5134905;27;20051;-70
2022/11/04 00:18:52;;;;;;;12.82;10.13;;;11.80;99.90;;;;;;5137613;27;20047;-70
2022/11/04 00:29:32;;;;;;;12.88;10.20;;;11.50;99.90;;;;;;5137714;27;20082;-70
2022/11/04 00:34:41;;;;;;;13.32;9.73;;;11.70;99.90;;;;;;5119135;27;20525;-70
2022/11/04 00:37:07;;;;;;;14.65;10.65;;;11.50;99.90;;;;;;5118785;27;20075;-70
2022/11/04 00:39:33;;;;;;;12.77;10.15;;;11.60;99.90;;;;;;5137136;27;20104;-70
2022/11/04 00:41:58;;;;;;;11.27;8.75;;;11.50;99.90;;;;;;5118549;27;20129;-70
2022/11/04 00:44:24;;;;;;;13.25;9.45;;;11.50;99.90;;;;;;5137058;27;20051;-70
2022/11/04 00:46:50;;;;;;;11.73;9.35;;;11.50;99.90;;;;;;5137240;27;20043;-71
2022/11/04 00:49:15;;;;;;;12.10;9.18;;;11.60;99.90;;;;;;5136843;27;20444;-71
2022/11/04 00:51:41;;;;;;;11.27;9.50;;;11.50;99.90;;;;;;5136679;27;20550;-71
2022/11/04 00:54:07;;;;;;;11.25;8.68;;;11.60;99.90;;;;;;5136281;27;20047;-71
2022/11/04 00:56:36;;;;;;;12.80;9.85;;;11.70;99.90;;;;;;5136873;27;20043;-71
2022/11/04 00:59:01;;;;;;;11.18;8.95;;;11.60;99.90;;;;;;5136797;27;20222;-71
2022/11/04 01:01:27;;;;;;;12.02;7.65;;;11.40;99.90;;;;;;5136603;27;20042;-71
2022/11/04 01:03:53;;;;;;;13.13;7.70;;;11.50;99.90;;;;;;5136507;27;20077;-71
2022/11/04 01:06:20;;;;;;;9.65;8.40;;;11.50;99.90;;;;;;5136322;27;20063;-71
2022/11/04 01:08:46;;;;;;;11.48;7.50;;;11.90;99.90;;;;;;5137244;27;20402;-71
2022/11/04 01:11:13;;;;;;;8.85;7.93;;;11.50;99.90;;;;;;5136558;27;20043;-71
2022/11/04 01:13:39;;;;;;;8.32;6.75;;;11.50;99.90;;;;;;5136585;27;20128;-70
2022/11/04 01:16:07;;;;;;;8.40;5.78;;;11.60;99.90;;;;;;5136375;27;20049;-70
2022/11/04 01:18:33;;;;;;;6.53;5.00;;;11.50;99.90;;;;;;5118051;27;20043;-71
2022/11/04 01:21:00;;;;;;;5.18;4.50;;;11.50;99.90;;;;;;5117987;27;20494;-71
2022/11/04 01:23:26;;;;;;;5.03;3.97;;;11.60;99.90;;;;;;5135661;27;20551;-70
2022/11/04 01:25:52;;;;;;;5.32;3.70;;;11.50;99.90;;;;;;5136186;27;20047;-69
2022/11/04 01:28:17;;;;;;;3.85;3.28;;;11.30;99.90;;;;;;5101032;27;20047;-71
2022/11/04 01:30:43;;;;;;;3.72;2.17;;;11.30;99.90;;;;;;5117963;27;20039;-69
2022/11/04 01:33:09;;;;;;;2.35;1.50;;;11.30;99.90;;;;;;5117721;27;20050;-69
2022/11/04 01:35:34;;;;;;;2.42;1.40;;;11.20;99.90;;;;;;5117731;27;20435;-70
2022/11/04 01:38:00;;;;;;;2.15;1.10;;;11.10;99.90;;;;;;5117703;27;20036;-69
2022/11/04 01:40:26;;;;;;;2.33;0.80;;;11.10;99.90;;;;;;5136274;27;20501;-69
2022/11/04 01:42:52;;;;;;;1.08;0.70;;;11.00;99.90;;;;;;5135941;27;20394;-67
2022/11/04 01:45:19;;;;;;;1.40;0.70;;;11.00;99.90;;;;;;5135891;27;20047;-69
2022/11/04 01:47:55;;;;;;;1.30;0.60;;;11.00;99.90;;;;;;5135520;27;20043;-68
2022/11/04 01:50:25;;;;;;;1.00;0.77;;;11.00;99.90;;;;;;5117478;27;20047;-69
2022/11/04 01:52:59;;;;;;;0.90;0.60;;;11.10;99.90;;;;;;5135727;27;20418;-70
2022/11/04 01:55:29;;;;;;;2.03;0.60;;;10.80;99.90;;;;;;5135157;27;20083;-69
2022/11/04 01:57:59;;;;;;;1.40;0.50;;;10.90;99.90;;;;;;5135454;27;20078;-69
2022/11/04 02:00:25;;;;;;;0.88;0.50;;;10.90;99.90;;;;;;5117428;27;20513;-69
2022/11/04 02:03:03;;;;;;;0.85;0.40;;;10.80;99.90;;;;;;5117301;27;20164;-69
2022/11/04 02:05:29;;;;;;;0.82;0.50;;;10.80;99.90;;;;;;5135486;27;20049;-68
2022/11/04 02:07:56;;;;;;;0.75;0.50;;;10.90;99.90;;;;;;5135125;27;20143;-69
2022/11/04 02:10:26;;;;;;;1.73;0.43;;;10.80;99.90;;;;;;5117129;27;20470;-68
2022/11/04 02:12:53;;;;;;;0.55;0.40;;;10.70;99.90;;;;;;5135329;27;20043;-69
2022/11/04 02:15:28;;;;;;;1.42;0.40;;;11.00;99.90;;;;;;5135111;27;20059;-68
2022/11/04 02:18:25;;;;;;;0.68;0.47;;;10.70;99.90;;;;;;5135325;27;20043;-69
2022/11/04 02:21:25;;;;;;;0.60;0.30;;;10.80;99.90;;;;;;5135324;27;20625;-69
2022/11/04 02:24:15;;;;;;;0.55;0.40;;;10.80;99.90;;;;;;5080095;27;20091;-69
2022/11/04 02:26:58;;;;;;;0.73;0.10;;;10.70;99.90;;;;;;5135226;27;20043;-69
2022/11/04 02:29:41;;;;;;;1.88;0.20;;;10.70;99.90;;;;;;5134928;27;20050;-68
2022/11/04 02:32:34;;;;;;;0.50;0.20;;;11.10;99.90;;;;;;5135163;27;20402;-68
2022/11/04 02:35:09;;;;;;;1.05;0.10;;;10.70;99.90;;;;;;5116889;27;20047;-68
2022/11/04 02:37:53;;;;;;;1.08;0.17;;;10.70;99.90;;;;;;5116471;27;20051;-69
2022/11/04 02:40:47;;;;;;;1.30;0.10;;;11.30;99.90;;;;;;5116541;27;20047;-68
2022/11/04 02:43:41;;;;;;;0.55;0.22;;;10.60;99.90;;;;;;5116782;27;20047;-68
2022/11/04 02:46:06;;;;;;;;;;;10.80;99.90;;;;;;5135045;27;20035;-68
2022/11/04 02:48:54;;;;;;;1.75;0.30;;;10.80;99.90;;;;;;5134538;27;19919;-69
2022/11/04 02:51:43;;;;;;;2.22;0.47;;;10.80;99.90;;;;;;5116695;27;20104;-69
2022/11/04 02:54:26;;;;;;;0.90;0.40;;;10.70;99.90;;;;;;5134242;27;20057;-69
2022/11/04 02:56:54;;;;;;;;;;;10.70;99.90;;;;;;5116889;27;20047;-68
2022/11/04 02:59:38;;;;;;;1.17;0.25;;;10.80;99.90;;;;;;5134561;27;19928;-69
2022/11/04 03:02:07;;;;;;;0.75;0.30;;;10.80;99.90;;;;;;5134948;27;20126;-69
2022/11/04 03:04:41;;;;;;;1.75;0.45;;;10.80;99.90;;;;;;5134459;27;20078;-69
2022/11/04 03:07:08;;;;;;;;;;;11.00;99.90;;;;;;5134508;27;20498;-69
2022/11/04 03:09:37;;;;;;;3.05;0.40;;;10.70;99.90;;;;;;5116168;28;19919;-69
2022/11/04 03:12:10;;;;;;;2.05;0.50;;;11.10;99.90;;;;;;5134521;28;20039;-68
2022/11/04 03:14:47;;;;;;;;;;;10.80;99.90;;;;;;5135131;28;20083;-69
2022/11/04 03:17:27;;;;;;;4.50;0.77;;;10.80;99.90;;;;;;5116175;28;20366;-68
2022/11/04 03:19:57;;;;;;;2.85;0.75;;;10.80;99.90;;;;;;5134329;28;20051;-69
2022/11/04 03:22:27;;;;;;;4.43;0.80;;;11.00;99.90;;;;;;5134693;28;20101;-69
2022/11/04 03:24:53;;;;;;;0.82;0.43;;;10.70;99.90;;;;;;5133721;28;20387;-69
2022/11/04 03:27:25;;;;;;;3.40;0.50;;;11.00;99.90;;;;;;5116002;28;20047;-69
2022/11/04 03:30:11;;;;;;;2.22;0.43;;;10.80;99.90;;;;;;5134383;28;20043;-68
2022/11/04 03:32:56;;;;;;;2.72;0.57;;;10.70;99.90;;;;;;5134737;28;20130;-69
2022/11/04 03:35:22;;;;;;;1.67;0.50;;;10.70;99.90;;;;;;5134469;28;20115;-68
2022/11/04 03:37:48;;;;;;;3.30;0.30;;;10.80;99.90;;;;;;5116111;28;20490;-68
2022/11/04 03:40:17;;;;;;;4.60;0.55;;;10.70;99.90;;;;;;5133964;28;20490;-68
2022/11/04 03:43:06;;;;;;;2.28;0.70;;;10.80;99.90;;;;;;5133995;28;20047;-69
2022/11/04 03:45:32;;;;;;;3.08;0.80;;;10.80;99.90;;;;;;5116004;28;20051;-69
2022/11/04 03:47:59;;;;;;;5.57;0.60;;;11.00;99.90;;;;;;5133958;27;20039;-68
2022/11/04 03:50:27;;;;;;;1.65;0.50;;;10.80;99.90;;;;;;5120232;27;20122;-68
2022/11/04 03:52:53;;;;;;;1.92;0.40;;;11.00;99.90;;;;;;5137910;27;20091;-69
2022/11/04 03:55:20;;;;;;;2.28;0.57;;;10.70;99.90;;;;;;5137193;27;20103;-69
2022/11/04 03:58:15;;;;;;;3.35;0.50;;;11.00;99.90;;;;;;5119781;27;20077;-70
2022/11/04 04:00:50;;;;;;;2.35;0.57;;;10.80;99.90;;;;;;5138006;27;20577;-69
2022/11/04 04:03:38;;;;;;;2.85;0.40;;;10.80;99.90;;;;;;5119618;27;20047;-69
2022/11/04 04:06:18;;;;;;;1.75;0.30;;;10.70;99.90;;;;;;5138021;27;20047;-70
2022/11/04 04:08:46;;;;;;;2.75;0.50;;;10.80;99.90;;;;;;5137732;27;20055;-70
2022/11/04 04:11:40;;;;;;;2.00;0.73;;;11.00;99.90;;;;;;5119506;27;20047;-69
2022/11/04 04:14:39;;;;;;;3.50;0.68;;;10.80;99.90;;;;;;5137556;27;20149;-69
2022/11/04 04:17:28;;;;;;;1.95;0.40;;;10.70;99.90;;;;;;5137630;27;20087;-69
2022/11/04 04:19:58;;;;;;;2.17;0.30;;;10.90;99.90;;;;;;5119081;27;20054;-69
2022/11/04 04:22:28;;;;;;;3.10;0.38;;;10.90;99.90;;;;;;5137378;27;20047;-69
2022/11/04 04:27:43;;;;;;;2.08;0.70;;;10.80;99.90;;;;;;5137335;27;20047;-69
2022/11/04 04:30:15;;;;;;;3.08;0.88;;;10.90;99.90;;;;;;5137282;27;20100;-70
2022/11/04 04:33:05;;;;;;;2.90;0.77;;;11.10;99.90;;;;;;5137051;27;20043;-70
2022/11/04 04:35:43;;;;;;;2.50;0.73;;;10.70;99.90;;;;;;5137322;27;20486;-70
2022/11/04 04:47:02;;;;;;;2.17;0.40;;;10.70;99.90;;;;;;5137036;27;20134;-69
2022/11/04 04:49:33;;;;;;;0.52;0.20;;;10.60;99.90;;;;;;5136722;27;20125;-69
2022/11/04 04:52:03;;;;;;;0.95;0.10;;;10.70;99.90;;;;;;5137413;27;20406;-68
2022/11/04 04:54:29;;;;;;;3.17;0.20;;;10.80;99.90;;;;;;5101215;27;20094;-70
2022/11/04 04:56:55;;;;;;;1.40;0.20;;;10.70;99.90;;;;;;5118962;27;20070;-69
2022/11/04 04:59:20;;;;;;;3.10;0.30;;;10.70;99.90;;;;;;5118056;27;20043;-70
2022/11/04 05:01:46;;;;;;;2.55;0.30;;;10.60;99.90;;;;;;5136649;27;20122;-71
2022/11/04 05:04:11;;;;;;;1.70;0.40;;;10.60;99.90;;;;;;5136535;27;20497;-71
2022/11/04 05:06:37;;;;;;;2.97;0.35;;;10.60;99.90;;;;;;5137071;27;20513;-71
2022/11/04 05:09:03;;;;;;;1.92;0.30;;;10.80;99.90;;;;;;5101226;27;20498;-70
2022/11/04 05:11:29;;;;;;;2.15;0.65;;;10.40;99.90;;;;;;5136584;27;20610;-70
2022/11/04 05:13:54;;;;;;;2.08;0.40;;;10.40;99.90;;;;;;5118059;27;20143;-71
2022/11/04 05:16:20;;;;;;;1.70;0.30;;;11.00;99.90;;;;;;5136450;27;20046;-71
2022/11/04 05:18:46;;;;;;;1.75;0.30;;;10.40;99.90;;;;;;5136338;27;20099;-69
2022/11/04 05:21:14;;;;;;;1.48;0.38;;;10.40;99.90;;;;;;5136419;27;20527;-70
2022/11/04 05:23:40;;;;;;;1.75;0.30;;;10.40;99.90;;;;;;5135762;27;20474;-71
2022/11/04 05:26:05;;;;;;;1.25;0.30;;;10.40;99.90;;;;;;5136063;27;20051;-70
2022/11/04 05:28:32;;;;;;;3.22;0.50;;;10.30;99.90;;;;;;5136180;27;20046;-69
2022/11/04 05:31:02;;;;;;;1.30;0.30;;;10.20;99.90;;;;;;5117961;27;20051;-69
2022/11/04 05:33:28;;;;;;;1.50;0.20;;;10.20;99.90;;;;;;5136635;27;20054;-70
2022/11/04 05:35:54;;;;;;;0.50;0.20;;;10.40;99.90;;;;;;5136043;27;20493;-69
2022/11/04 05:38:20;;;;;;;2.05;0.20;;;10.50;99.90;;;;;;5136306;27;20039;-70
2022/11/04 05:40:45;;;;;;;1.17;0.20;;;10.60;99.90;;;;;;5135899;27;20435;-69
2022/11/04 05:43:11;;;;;;;1.35;0.17;;;10.20;99.90;;;;;;5135962;27;20130;-69
2022/11/04 05:45:37;;;;;;;2.95;0.25;;;10.10;99.90;;;;;;5135618;27;20475;-68
2022/11/04 05:48:04;;;;;;;1.48;0.20;;;10.10;99.90;;;;;;5117187;27;20039;-69
2022/11/04 05:50:31;;;;;;;1.15;0.20;;;10.00;99.90;;;;;;5135815;27;20054;-68
2022/11/04 05:52:57;;;;;;;0.60;0.20;;;10.20;99.90;;;;;;5135707;27;20410;-68
2022/11/04 05:55:23;;;;;;;0.70;0.17;;;10.20;99.90;;;;;;5135160;27;20050;-69
2022/11/04 05:57:49;;;;;;;1.05;0.20;;;9.90;99.90;;;;;;5135642;27;20531;-68
2022/11/04 06:00:15;;;;;;;1.95;0.20;;;10.10;99.90;;;;;;5117448;27;20043;-68
2022/11/04 06:02:41;;;;;;;1.05;0.20;;;9.80;99.90;;;;;;5135249;27;20430;-68
2022/11/04 06:05:07;;;;;;;0.65;0.20;;;9.90;99.90;;;;;;5135450;27;20129;-68
2022/11/04 06:07:33;;;;;;;1.77;0.28;;;9.70;99.90;;;;;;5135168;27;20057;-67
2022/11/04 06:09:59;;;;;;;0.85;0.15;;;9.70;99.90;;;;;;5135345;27;20413;-69
2022/11/04 06:12:25;;;;;;;0.30;0.13;;;9.80;99.90;;;;;;5134635;27;20043;-67
2022/11/04 06:14:50;;;;;;;0.60;0.10;;;9.70;99.90;;;;;;5116776;27;20471;-68
2022/11/04 06:17:19;;;;;;;1.50;0.28;;;9.70;99.90;;;;;;5135336;27;20069;-68
2022/11/04 06:19:45;;;;;;;1.30;0.20;;;9.70;99.90;;;;;;5135404;27;20043;-67
2022/11/04 06:22:13;;;;;;;1.85;0.30;;;9.60;99.90;;;;;;5135162;27;20039;-68
2022/11/04 06:24:38;;;;;;;0.85;0.20;;;9.70;99.90;;;;;;5134395;27;20054;-68
2022/11/04 06:27:04;;;;;;;0.50;0.20;;;9.90;99.90;;;;;;5116562;27;20035;-68
2022/11/04 06:29:30;;;;;;;1.67;0.20;;;9.80;99.90;;;;;;5134715;27;20047;-68
2022/11/04 06:31:56;;;;;;;0.90;0.20;;;9.60;99.90;;;;;;5134667;27;20180;-67
2022/11/04 06:34:21;;;;;;;0.80;0.13;;;9.60;99.90;;;;;;5135184;27;20047;-67
2022/11/04 06:36:50;;;;;;;0.80;0.30;;;9.50;99.90;;;;;;5134854;27;20046;-67
2022/11/04 06:39:16;;;;;;;0.80;0.25;;;9.40;99.90;;;;;;5135037;27;20054;-68
2022/11/04 06:41:41;;;;;;;1.33;0.22;;;9.80;99.90;;;;;;5134789;27;20147;-68
2022/11/04 06:44:07;;;;;;;2.20;0.30;;;10.10;99.90;;;;;;5134623;27;20046;-68
2022/11/04 06:46:38;;;;;;;0.73;0.28;;;9.50;99.90;;;;;;5116668;27;20053;-69
2022/11/04 06:49:06;;;;;;;0.55;0.20;;;9.50;99.90;;;;;;5134759;27;20050;-68
2022/11/04 06:51:32;;;;;;;1.70;0.20;;;9.60;99.90;;;;;;5116645;27;20039;-68
2022/11/04 06:53:58;;;;;;;0.47;0.20;;;9.50;99.90;;;;;;5116020;27;20039;-67
2022/11/04 06:56:24;;;;;;;1.13;0.20;;;9.80;99.90;;;;;;5134306;27;20035;-67
2022/11/04 06:58:51;;;;;;;0.32;0.20;;;9.50;99.90;;;;;;5134194;27;20051;-68
2022/11/04 07:01:18;;;;;;;0.40;0.20;;;9.50;99.90;;;;;;5116468;27;20043;-68
2022/11/04 07:03:47;;;;;;;1.35;0.20;;;9.60;99.90;;;;;;5134495;27;20051;-68
2022/11/04 07:06:13;;;;;;;0.75;0.20;;;9.60;99.90;;;;;;5134434;27;20042;-68
2022/11/04 07:08:39;;;;;;;2.30;0.20;;;9.60;99.90;;;;;;5134336;27;20063;-68
2022/11/04 07:11:06;;;;;;;1.27;0.30;;;9.90;99.90;;;;;;5134272;28;20398;-67
2022/11/04 07:13:31;;;;;;;0.45;0.30;;;9.90;99.90;;;;;;5134226;28;20050;-68
2022/11/04 07:15:57;;;;;;;0.70;0.20;;;9.70;99.90;;;;;;5115951;28;20043;-68
2022/11/04 07:18:23;;;;;;;2.42;0.30;;;9.60;99.90;;;;;;5134280;28;20043;-68
2022/11/04 07:20:48;;;;;;;3.40;0.22;;;9.90;99.90;;;;;;5134300;28;20054;-67
2022/11/04 07:23:14;;;;;;;2.25;0.60;;;9.90;99.90;;;;;;5136441;27;20047;-68
2022/11/04 07:25:40;;;;;;;2.67;0.30;;;9.80;99.90;;;;;;5137887;27;20054;-68
2022/11/04 07:28:05;;;;;;;1.13;0.28;;;9.90;99.90;;;;;;5138138;27;20054;-68
2022/11/04 07:30:31;;;;;;;1.02;0.30;;;10.00;99.90;;;;;;5138707;27;20042;-67
2022/11/04 07:32:57;;;;;;;1.55;0.30;;;9.80;99.90;;;;;;5138513;27;20126;-67
2022/11/04 07:35:23;;;;;;;0.77;0.20;;;9.60;99.90;;;;;;5120654;27;20434;-68
2022/11/04 07:37:49;;;;;;;2.45;0.40;;;9.90;99.90;;;;;;5120019;27;20040;-68
2022/11/04 07:40:15;;;;;;;2.17;0.30;;;9.60;99.90;;;;;;5119956;27;20127;-67
2022/11/04 07:42:40;;;;;;;0.55;0.20;;;9.60;99.90;;;;;;5137759;27;20394;-68
2022/11/04 07:45:06;;;;;;;0.55;0.28;;;9.90;99.90;;;;;;5120690;27;20045;-68
2022/11/04 07:47:32;;;;;;;2.40;0.30;;;9.40;99.90;;;;;;5138059;27;20035;-68
2022/11/04 07:49:58;;;;;;;9.93;2.28;;;9.60;99.90;;;;;;5138203;27;20047;-68
2022/11/04 07:52:24;;;;;;;2.38;0.38;;;9.60;99.90;;;;;;5119676;27;20571;-67
2022/11/04 07:54:50;;;;;;;0.63;0.25;;;9.50;99.90;;;;;;5119163;27;20161;-68
2022/11/04 07:57:15;;;;;;;2.75;0.30;;;9.60;99.90;;;;;;5119612;27;20134;-68
2022/11/04 07:59:41;;;;;;;2.67;0.30;;;9.60;99.90;;;;;;5137931;27;20043;-68
2022/11/04 08:02:09;;;;;;;0.88;0.30;;;9.50;99.90;;;;;;5138302;27;20466;-68
2022/11/04 08:04:34;;;;;;;2.13;0.40;;;9.50;99.90;;;;;;5137876;27;20046;-68
2022/11/04 08:07:00;;;;;;;0.50;0.38;;;9.50;99.90;;;;;;5102824;27;20043;-68
2022/11/04 08:09:26;;;;;;;0.77;0.32;;;9.60;99.90;;;;;;5137605;27;20216;-68
2022/11/04 08:11:52;;;;;;;1.40;0.32;;;9.60;99.90;;;;;;5137572;27;20152;-68
2022/11/04 08:14:18;;;;;;;1.35;0.40;;;10.10;99.90;;;;;;5138094;27;20043;-69
2022/11/04 08:16:43;;;;;;;2.25;0.30;;;9.90;99.90;;;;;;5119663;27;20088;-68
2022/11/04 08:19:10;;;;;;;1.38;0.35;;;9.70;99.90;;;;;;5137873;27;20126;-67
2022/11/04 08:21:35;;;;;;;1.00;0.50;;;9.70;99.90;;;;;;5137589;27;20051;-67
2022/11/04 08:24:04;;;;;;;2.35;0.35;;;10.10;99.90;;;;;;5137210;27;20130;-67
2022/11/04 08:26:30;;;;;;;2.30;0.52;;;9.60;99.90;;;;;;5118986;27;20039;-67
2022/11/04 08:28:56;;;;;;;1.30;0.40;;;9.90;99.90;;;;;;5137541;27;20035;-67
2022/11/04 08:31:28;;;;;;;1.42;0.30;;;9.80;99.90;;;;;;5119329;27;20133;-67
2022/11/04 08:33:54;;;;;;;1.08;0.20;;;10.00;99.90;;;;;;5136986;27;20043;-66
2022/11/04 08:36:26;;;;;;;0.55;0.40;;;9.80;99.90;;;;;;5137300;27;20049;-66
2022/11/04 08:38:52;;;;;;;2.17;0.40;;;9.70;99.90;;;;;;5137305;27;20047;-68
2022/11/04 08:41:21;;;;;;;1.13;0.43;;;9.80;99.90;;;;;;5137718;27;20043;-68
2022/11/04 08:43:47;;;;;;;3.00;0.50;;;9.90;99.90;;;;;;5137248;27;20054;-68
2022/11/04 08:46:14;;;;;;;2.13;0.32;;;10.00;99.90;;;;;;5123145;27;20394;-68
2022/11/04 08:48:42;;;;;;;2.53;0.52;;;9.80;99.90;;;;;;5127699;27;20050;-69
2022/11/04 08:51:17;;;;;;;2.20;0.40;;;10.60;99.90;;;;;;5144879;27;20500;-69
2022/11/04 08:53:43;;;;;;;1.73;0.40;;;9.80;99.90;;;;;;5145480;27;20066;-68
2022/11/04 08:56:30;;;;;;;1.15;0.40;;;9.90;99.90;;;;;;5147133;27;20043;-69
2022/11/04 08:58:57;;;;;;;2.65;0.40;;;9.90;99.90;;;;;;5147126;27;20051;-69
2022/11/04 09:01:24;;;;;;;2.65;0.50;;;9.90;99.90;;;;;;5127149;27;20426;-68
2022/11/04 09:03:50;;;;;;;1.20;0.50;;;9.90;99.90;;;;;;5146955;27;20517;-68
2022/11/04 09:06:22;;;;;;;1.27;0.50;;;10.20;99.90;;;;;;5128500;27;20090;-68
2022/11/04 09:08:49;;;;;;;1.42;0.63;;;10.00;99.90;;;;;;5127173;27;20055;-69
2022/11/04 09:11:16;;;;;;;1.73;0.50;;;10.10;99.90;;;;;;5128120;27;20424;-69
2022/11/04 09:13:42;;;;;;;1.13;0.60;;;10.00;99.90;;;;;;5129172;27;20504;-69
2022/11/04 09:16:10;;;;;;;0.60;0.30;;;10.40;99.90;;;;;;5145443;27;20122;-69
2022/11/04 09:18:36;;;;;;;1.40;0.30;;;10.10;99.90;;;;;;5127477;27;20055;-69
2022/11/04 09:21:04;;;;;;;0.85;0.40;;;10.70;99.90;;;;;;5146160;27;20044;-68
2022/11/04 09:23:30;;;;;;;0.90;0.40;;;10.10;99.90;;;;;;5126804;27;20403;-69
2022/11/04 09:25:57;;;;;;;1.08;0.50;;;10.20;99.90;;;;;;5146810;27;20039;-68
2022/11/04 09:28:23;;;;;;;2.92;0.65;;;10.70;99.90;;;;;;5109256;27;20058;-68
2022/11/04 09:30:50;;;;;;;2.47;0.70;;;10.40;99.90;;;;;;5147226;27;20074;-68
2022/11/04 09:33:16;;;;;;;2.05;0.80;;;10.60;99.90;;;;;;5145106;27;20046;-68
2022/11/04 09:35:42;;;;;;;2.30;0.50;;;10.20;99.90;;;;;;5147001;27;20047;-67
2022/11/04 09:38:07;;;;;;;2.50;0.60;;;11.30;99.90;;;;;;5128123;27;20046;-69
2022/11/04 09:40:36;;;;;;;1.85;0.40;;;10.40;99.90;;;;;;5146564;27;20050;-68
2022/11/04 09:43:43;;;;;;;0.88;0.43;;;10.70;99.90;;;;;;5146431;27;20502;-68
2022/11/04 09:46:12;;;;;;;2.33;0.50;;;10.50;99.90;;;;;;5116600;27;20135;-68
2022/11/04 09:48:47;;;;;;;1.83;0.50;;;10.70;99.90;;;;;;5126746;27;20050;-68
2022/11/04 09:51:15;;;;;;;0.95;0.50;;;10.50;99.90;;;;;;5126740;27;20039;-68
2022/11/04 09:53:48;;;;;;;1.95;0.40;;;10.70;99.90;;;;;;5125504;27;20051;-68
2022/11/04 09:56:16;;;;;;;1.00;0.40;;;10.80;99.90;;;;;;5144842;27;20198;-69
2022/11/04 09:58:42;;;;;;;2.30;0.40;;;10.60;99.90;;;;;;5142721;27;20054;-69
2022/11/04 10:01:17;;;;;;;0.85;0.40;;;10.60;99.90;;;;;;5125524;27;20104;-69
2022/11/04 10:04:10;;;;;;;2.20;0.50;;;10.60;99.90;;;;;;5144645;27;20399;-69
2022/11/04 10:06:56;;;;;;;1.23;0.60;;;10.70;99.90;;;;;;5143956;27;20075;-69
2022/11/04 10:09:54;;;;;;;4.43;0.50;;;10.70;99.90;;;;;;5144626;27;20055;-69
2022/11/04 10:12:35;;;;;;;2.58;0.40;;;10.80;99.90;;;;;;5144041;27;20082;-69
2022/11/04 10:15:43;;;;;;;2.22;0.50;;;10.80;99.90;;;;;;5145122;27;20035;-68
2022/11/04 10:18:25;;;;;;;1.20;0.40;;;10.80;99.90;;;;;;5054688;27;20084;-68
2022/11/04 10:21:12;;;;;;;2.70;0.40;;;10.80;99.90;;;;;;5144473;27;20096;-69
2022/11/04 10:24:08;;;;;;;2.45;0.30;;;10.80;99.90;;;;;;5128062;27;20039;-68
2022/11/04 10:26:44;;;;;;;1.90;0.40;;;10.90;99.90;;;;;;5144946;27;20039;-69
2022/11/04 10:29:15;;;;;;;2.83;0.50;;;10.90;99.90;;;;;;5127816;27;20389;-68
2022/11/04 10:31:43;;;;;;;3.90;0.50;;;11.20;99.90;;;;;;5145449;27;20360;-68
2022/11/04 10:34:28;;;;;;;3.17;0.40;;;11.00;99.90;;;;;;5127442;27;20050;-68
2022/11/04 10:36:55;;;;;;;2.95;0.30;;;11.00;99.90;;;;;;5144640;27;20088;-68
2022/11/04 10:39:36;;;;;;;1.10;0.38;;;11.00;99.90;;;;;;5146402;27;20172;-68
2022/11/04 10:42:03;;;;;;;1.95;0.40;;;11.00;99.90;;;;;;5145308;27;20050;-69
2022/11/04 10:44:33;;;;;;;2.22;0.30;;;11.10;99.90;;;;;;5129919;27;20065;-68
2022/11/04 10:47:11;;;;;;;1.58;0.40;;;11.10;99.90;;;;;;5107497;27;20077;-68
2022/11/04 10:50:03;;;;;;;1.85;0.30;;;11.20;99.90;;;;;;5126256;27;20038;-69
2022/11/04 10:52:32;;;;;;;2.20;0.40;;;11.30;99.90;;;;;;5143061;27;20126;-68
2022/11/04 10:54:58;;;;;;;3.00;0.35;;;11.30;99.90;;;;;;5145444;27;20498;-68
2022/11/04 10:57:24;;;;;;;2.38;0.40;;;11.30;99.90;;;;;;5124550;27;20039;-68
2022/11/04 10:59:57;;;;;;;2.95;0.50;;;11.40;99.90;;;;;;5127693;27;20114;-68
2022/11/04 11:02:43;;;;;;;0.98;0.30;;;11.50;99.90;;;;;;5143102;27;20092;-68
2022/11/04 11:05:18;;;;;;;5.00;0.50;;;11.40;99.90;;;;;;5126219;27;20050;-69
2022/11/04 11:07:45;;;;;;;1.33;0.40;;;11.40;99.90;;;;;;5144922;27;20537;-69
2022/11/04 11:10:32;;;;;;;3.75;0.57;;;11.40;99.90;;;;;;5145232;27;20039;-68
2022/11/04 11:13:05;;;;;;;4.15;0.40;;;11.50;99.90;;;;;;5144517;27;20444;-68
2022/11/04 11:15:36;;;;;;;2.75;0.40;;;11.60;99.90;;;;;;5124537;27;20039;-68
2022/11/04 11:18:13;;;;;;;2.15;0.20;;;11.50;99.90;;;;;;5126821;27;20156;-69
2022/11/04 11:20:40;;;;;;;1.88;0.68;;;11.40;99.90;;;;;;5109645;27;20172;-70
2022/11/04 11:23:32;;;;;;;1.42;0.40;;;11.40;99.90;;;;;;5126276;27;20509;-68
2022/11/04 11:25:58;;;;;;;2.30;0.30;;;11.50;99.90;;;;;;5127405;27;20054;-68
2022/11/04 11:28:25;;;;;;;2.20;0.43;;;11.50;99.90;;;;;;5128107;27;20114;-68
2022/11/04 11:31:03;;;;;;;2.65;0.47;;;11.40;99.90;;;;;;5125515;27;20112;-68
2022/11/04 11:33:34;;;;;;;2.13;0.40;;;11.50;99.90;;;;;;5125238;27;20071;-69
2022/11/04 11:36:10;;;;;;;2.50;0.40;;;11.70;99.90;;;;;;5125205;27;20113;-68
2022/11/04 11:38:37;;;;;;;2.35;0.43;;;11.40;99.90;;;;;;5126208;27;20116;-68
2022/11/04 11:41:09;;;;;;;2.05;0.60;;;11.60;99.90;;;;;;5107797;27;20050;-68
2022/11/04 11:43:39;;;;;;;2.27;0.70;;;11.50;99.90;;;;;;5143384;27;20057;-69
2022/11/04 11:46:05;;;;;;;3.80;0.90;;;11.90;99.90;;;;;;5144930;27;20127;-68
2022/11/04 11:48:50;;;;;;;5.03;1.00;;;11.50;99.90;;;;;;5134488;27;20051;-68
2022/11/04 11:51:25;;;;;;;3.72;0.80;;;11.70;99.90;;;;;;5133515;28;20062;-68
2022/11/04 11:54:12;;;;;;;1.65;0.90;;;11.60;99.90;;;;;;5134181;27;20130;-68
2022/11/04 11:56:42;;;;;;;2.58;0.70;;;11.50;99.90;;;;;;5116092;28;20099;-68
2022/11/04 11:59:33;;;;;;;5.53;2.50;;;11.50;99.90;;;;;;5115898;28;20452;-68
2022/11/04 12:02:24;;;;;;;4.00;1.08;;;11.70;99.90;;;;;;5128882;27;20051;-68
2022/11/04 12:04:50;;;;;;;2.35;0.60;;;11.70;99.90;;;;;;5119512;27;20057;-68
2022/11/04 12:07:39;;;;;;;4.38;0.70;;;11.80;99.90;;;;;;5136191;27;20186;-68
2022/11/04 12:10:33;;;;;;;2.28;0.50;;;11.70;99.90;;;;;;5138148;27;20050;-68
2022/11/04 12:13:26;;;;;;;2.17;0.47;;;11.60;99.90;;;;;;5140606;27;20034;-69
2022/11/04 12:16:07;;;;;;;3.15;0.52;;;11.60;99.90;;;;;;5140087;27;20401;-68
2022/11/04 12:18:43;;;;;;;2.10;0.55;;;11.70;99.90;;;;;;5158479;27;20043;-69
2022/11/04 12:21:15;;;;;;;3.20;0.90;;;11.70;99.90;;;;;;5147760;27;20122;-68
2022/11/04 12:23:56;;;;;;;2.67;0.80;;;11.80;99.90;;;;;;5137906;27;20047;-68
2022/11/04 12:26:37;;;;;;;1.77;0.50;;;11.90;99.90;;;;;;5101724;27;20058;-68
2022/11/04 12:29:39;;;;;;;2.35;0.82;;;11.90;99.90;;;;;;5102560;27;20101;-68
2022/11/04 12:32:20;;;;;;;3.83;0.60;;;12.00;99.90;;;;;;5137071;27;20043;-68
2022/11/04 12:35:10;;;;;;;2.85;0.40;;;11.90;99.90;;;;;;5137046;27;20372;-71
2022/11/04 12:37:51;;;;;;;2.17;0.40;;;11.90;99.90;;;;;;5102343;27;20051;-72
2022/11/04 12:40:24;;;;;;;2.75;0.63;;;11.60;99.90;;;;;;5119077;27;20180;-73
2022/11/04 12:43:02;;;;;;;2.53;0.60;;;11.40;99.90;;;;;;5137333;27;20503;-72
2022/11/04 12:45:27;;;;;;;3.47;0.38;;;11.10;99.90;;;;;;5137311;27;20059;-72
2022/11/04 12:48:06;;;;;;;1.88;0.45;;;11.20;99.90;;;;;;5118983;27;20105;-71
2022/11/04 12:50:58;;;;;;;2.42;0.50;;;10.80;99.90;;;;;;5136983;27;20084;-71
2022/11/04 12:54:00;;;;;;;2.88;0.50;;;10.70;99.90;;;;;;5136916;27;20047;-71
2022/11/04 12:56:37;;;;;;;2.05;0.38;;;10.60;99.90;;;;;;5136861;27;20043;-71
2022/11/04 12:59:36;;;;;;;2.28;0.40;;;10.60;99.90;;;;;;5137272;27;20187;-70
2022/11/04 13:02:13;;;;;;;3.05;0.32;;;10.50;99.90;;;;;;5137076;27;20126;-69
2022/11/04 13:04:46;;;;;;;2.28;0.30;;;10.70;99.90;;;;;;5137077;27;20054;-69
2022/11/04 13:07:18;;;;;;;3.67;0.30;;;10.60;99.90;;;;;;5136862;27;20039;-69
2022/11/04 13:09:49;;;;;;;1.52;0.30;;;10.70;99.90;;;;;;5136421;27;20057;-70
2022/11/04 13:12:22;;;;;;;1.98;0.35;;;10.70;99.90;;;;;;5118330;27;20081;-69
2022/11/04 13:14:59;;;;;;;1.55;0.47;;;10.80;99.90;;;;;;5136855;27;20046;-69
2022/11/04 13:17:30;;;;;;;1.88;0.50;;;10.70;99.90;;;;;;5136711;27;20041;-69
2022/11/04 13:20:15;;;;;;;4.60;0.52;;;10.80;99.90;;;;;;5118856;27;20134;-68
2022/11/04 13:22:48;;;;;;;3.92;0.70;;;10.90;99.90;;;;;;5136534;27;20042;-68
2022/11/04 13:25:32;;;;;;;1.48;0.65;;;10.90;99.90;;;;;;5136174;27;20122;-68
2022/11/04 13:27:59;;;;;;;1.85;0.43;;;11.00;99.90;;;;;;5136388;27;20047;-68
2022/11/04 13:30:56;;;;;;;1.80;0.40;;;11.00;99.90;;;;;;5136462;27;20042;-68
2022/11/04 13:33:36;;;;;;;2.55;0.63;;;11.10;99.90;;;;;;5117512;27;20061;-68
2022/11/04 13:36:29;;;;;;;1.77;0.50;;;11.20;99.90;;;;;;5141656;27;20494;-68
2022/11/04 13:39:09;;;;;;;4.10;0.60;;;11.30;99.90;;;;;;5135307;27;20095;-68
2022/11/04 13:42:00;;;;;;;5.68;0.45;;;11.30;99.90;;;;;;5135540;27;20622;-68